FLE2508 CYYC-MMPR
Flight info
| Callsign | FLE2508 |
|---|---|
| Flight time | N/A |
| Altitude | 35000 |
| Route | UBVAL Q927 SEKOM DCT DBS J9 TCH/N0457F370 J9 FFU DCT TBC DCT TUS J92 VYLLA UT12 CUL UJ7 MZT J141 OBRUG OBRUG1A |
| Aircraft | B38M/M-SDE1FGHILORVWXY/HB1 |
Departure
| Time | N/A |
|---|---|
| Airport | Calgary International Airport (CYYC) |
Arrival
| Time | 2026-04-24 21:29 |
|---|---|
| Airport | Puerto Vallarta International Airport (MMPR) |
| Time | Latitude | Longitude | Altitude | Speed | Heading |
|---|---|---|---|---|---|
| 2026-04-24 16:38 | 51.12979 | -114.01278 | 3568 ft | 0 kts | 131° |
| 2026-04-24 17:01 | 51.13012 | -114.01309 | 3561 ft | 4 kts | 193° |
| 2026-04-24 17:01 | 51.13022 | -114.01301 | 3564 ft | 0 kts | 223° |
| 2026-04-24 17:04 | 51.13020 | -114.01318 | 3557 ft | 3 kts | 267° |
| 2026-04-24 17:04 | 51.13018 | -114.01374 | 3560 ft | 7 kts | 267° |
| 2026-04-24 17:05 | 51.12999 | -114.01443 | 3568 ft | 6 kts | 215° |
| 2026-04-24 17:05 | 51.12945 | -114.01484 | 3564 ft | 11 kts | 189° |
| 2026-04-24 17:05 | 51.12788 | -114.01317 | 3561 ft | 11 kts | 137° |
| 2026-04-24 17:06 | 51.12716 | -114.01302 | 3561 ft | 12 kts | 210° |
| 2026-04-24 17:06 | 51.12604 | -114.01278 | 3568 ft | 12 kts | 91° |
| 2026-04-24 17:06 | 51.12611 | -114.01122 | 3562 ft | 17 kts | 85° |
| 2026-04-24 17:07 | 51.12614 | -114.00974 | 3568 ft | 22 kts | 89° |
| 2026-04-24 17:07 | 51.12615 | -114.00636 | 3568 ft | 24 kts | 90° |
| 2026-04-24 17:07 | 51.12616 | -114.00108 | 3568 ft | 24 kts | 90° |
| 2026-04-24 17:08 | 51.12617 | -113.99573 | 3568 ft | 20 kts | 90° |
| 2026-04-24 17:08 | 51.12602 | -113.99468 | 3560 ft | 9 kts | 136° |
| 2026-04-24 17:08 | 51.12538 | -113.99444 | 3565 ft | 10 kts | 181° |
| 2026-04-24 17:09 | 51.12369 | -113.99446 | 3564 ft | 15 kts | 181° |
| 2026-04-24 17:09 | 51.12107 | -113.99445 | 3562 ft | 23 kts | 180° |
| 2026-04-24 17:10 | 51.11934 | -113.99447 | 3562 ft | 27 kts | 180° |
| 2026-04-24 17:10 | 51.11535 | -113.99293 | 3568 ft | 16 kts | 90° |
| 2026-04-24 17:11 | 51.11605 | -113.99036 | 3563 ft | 6 kts | 0° |
| 2026-04-24 17:12 | 51.15340 | -113.99033 | 4258 ft | 167 kts | 355° |
| 2026-04-24 18:54 | 38.30675 | -111.61207 | 36852 ft | 453 kts | 181° |
| 2026-04-24 18:55 | 38.21304 | -111.59696 | 36852 ft | 453 kts | 181° |
| 2026-04-24 18:56 | 38.15057 | -111.58692 | 36849 ft | 451 kts | 181° |
| 2026-04-24 18:56 | 38.08829 | -111.57692 | 36848 ft | 451 kts | 181° |
| 2026-04-24 18:57 | 38.02647 | -111.56701 | 36848 ft | 451 kts | 181° |
| 2026-04-24 18:57 | 37.96386 | -111.55700 | 36836 ft | 450 kts | 181° |
| 2026-04-24 18:58 | 37.90214 | -111.54713 | 36834 ft | 449 kts | 181° |
| 2026-04-24 18:58 | 37.84015 | -111.53724 | 36845 ft | 450 kts | 181° |
| 2026-04-24 18:59 | 37.77811 | -111.52737 | 36796 ft | 449 kts | 182° |
| 2026-04-24 18:59 | 37.71606 | -111.51751 | 36832 ft | 449 kts | 182° |
| 2026-04-24 19:00 | 37.66415 | -111.50927 | 36823 ft | 449 kts | 182° |
| 2026-04-24 19:00 | 37.59220 | -111.49788 | 36840 ft | 448 kts | 182° |
| 2026-04-24 19:01 | 37.53032 | -111.48809 | 36833 ft | 449 kts | 182° |
| 2026-04-24 19:01 | 37.46831 | -111.47830 | 36827 ft | 449 kts | 182° |
| 2026-04-24 19:02 | 37.41682 | -111.47019 | 36833 ft | 449 kts | 182° |
| 2026-04-24 19:02 | 37.34447 | -111.45880 | 36806 ft | 448 kts | 182° |
| 2026-04-24 19:03 | 37.28239 | -111.44905 | 36831 ft | 450 kts | 182° |
| 2026-04-24 19:03 | 37.22041 | -111.43932 | 36855 ft | 449 kts | 182° |
| 2026-04-24 19:04 | 37.15830 | -111.42961 | 36867 ft | 450 kts | 182° |
| 2026-04-24 19:04 | 37.09621 | -111.41991 | 36881 ft | 449 kts | 183° |
| 2026-04-24 19:05 | 37.03405 | -111.41020 | 36921 ft | 450 kts | 183° |
| 2026-04-24 19:05 | 36.97199 | -111.40053 | 36939 ft | 450 kts | 183° |
| 2026-04-24 19:06 | 36.90986 | -111.39087 | 36897 ft | 450 kts | 183° |
| 2026-04-24 19:06 | 36.84770 | -111.38122 | 36932 ft | 450 kts | 183° |
| 2026-04-24 19:07 | 36.78558 | -111.37159 | 36911 ft | 450 kts | 183° |
| 2026-04-24 19:07 | 36.73399 | -111.36361 | 36890 ft | 450 kts | 183° |
| 2026-04-24 19:08 | 36.66176 | -111.35245 | 36848 ft | 450 kts | 183° |
| 2026-04-24 19:08 | 36.59965 | -111.34286 | 36852 ft | 450 kts | 183° |
| 2026-04-24 19:09 | 36.53753 | -111.33330 | 36844 ft | 450 kts | 183° |
| 2026-04-24 19:09 | 36.47543 | -111.32375 | 36864 ft | 450 kts | 183° |
| 2026-04-24 19:10 | 36.41329 | -111.31420 | 36850 ft | 449 kts | 183° |
| 2026-04-24 19:10 | 36.35112 | -111.30467 | 36844 ft | 450 kts | 183° |
| 2026-04-24 19:11 | 36.28898 | -111.29516 | 36842 ft | 450 kts | 183° |
| 2026-04-24 19:11 | 36.22685 | -111.28567 | 36797 ft | 450 kts | 183° |
| 2026-04-24 19:12 | 36.16456 | -111.27616 | 36847 ft | 452 kts | 183° |
| 2026-04-24 19:12 | 36.10233 | -111.26855 | 36861 ft | 446 kts | 186° |
| 2026-04-24 19:13 | 36.05074 | -111.26405 | 36835 ft | 447 kts | 186° |
| 2026-04-24 19:13 | 35.98866 | -111.25834 | 36823 ft | 448 kts | 186° |
| 2026-04-24 19:14 | 35.92642 | -111.25260 | 36842 ft | 449 kts | 186° |
| 2026-04-24 19:14 | 35.86417 | -111.24685 | 36839 ft | 448 kts | 186° |
| 2026-04-24 19:15 | 35.80196 | -111.24113 | 36831 ft | 448 kts | 186° |
| 2026-04-24 19:15 | 35.73975 | -111.23541 | 36835 ft | 449 kts | 186° |
| 2026-04-24 19:16 | 35.64615 | -111.22682 | 36827 ft | 449 kts | 186° |
| 2026-04-24 19:16 | 35.58381 | -111.22111 | 36830 ft | 449 kts | 186° |
| 2026-04-24 19:17 | 35.52148 | -111.21541 | 36815 ft | 449 kts | 186° |
| 2026-04-24 19:17 | 35.45912 | -111.20971 | 36828 ft | 449 kts | 186° |
| 2026-04-24 19:18 | 35.39677 | -111.20403 | 36840 ft | 449 kts | 186° |
| 2026-04-24 19:18 | 35.33448 | -111.19836 | 36840 ft | 449 kts | 186° |
| 2026-04-24 19:19 | 35.27215 | -111.19270 | 36840 ft | 449 kts | 186° |
| 2026-04-24 19:19 | 35.20976 | -111.18704 | 36859 ft | 450 kts | 186° |
| 2026-04-24 19:20 | 35.14778 | -111.18142 | 36860 ft | 449 kts | 186° |
| 2026-04-24 19:20 | 35.08541 | -111.17578 | 36832 ft | 449 kts | 186° |
| 2026-04-24 19:21 | 35.02297 | -111.17014 | 36882 ft | 451 kts | 186° |
| 2026-04-24 19:21 | 34.96043 | -111.16450 | 36884 ft | 450 kts | 186° |
| 2026-04-24 19:22 | 34.89796 | -111.15888 | 36891 ft | 450 kts | 186° |
| 2026-04-24 19:22 | 34.83545 | -111.15325 | 36878 ft | 450 kts | 186° |
| 2026-04-24 19:23 | 34.77304 | -111.14765 | 36899 ft | 450 kts | 186° |
| 2026-04-24 19:23 | 34.71053 | -111.14205 | 36907 ft | 450 kts | 186° |
| 2026-04-24 19:24 | 34.64810 | -111.13646 | 36912 ft | 450 kts | 186° |
| 2026-04-24 19:24 | 34.58569 | -111.13088 | 36894 ft | 450 kts | 186° |
| 2026-04-24 19:25 | 34.52321 | -111.12531 | 36912 ft | 450 kts | 186° |
| 2026-04-24 19:25 | 34.46082 | -111.11975 | 36901 ft | 450 kts | 186° |
| 2026-04-24 19:26 | 34.39832 | -111.11419 | 36980 ft | 450 kts | 186° |
| 2026-04-24 19:26 | 34.33589 | -111.10865 | 36972 ft | 451 kts | 186° |
| 2026-04-24 19:27 | 34.27332 | -111.10310 | 36990 ft | 450 kts | 186° |
| 2026-04-24 19:27 | 34.21085 | -111.09756 | 36972 ft | 450 kts | 186° |
| 2026-04-24 19:28 | 34.14831 | -111.09204 | 36984 ft | 451 kts | 186° |
| 2026-04-24 19:28 | 34.08619 | -111.08655 | 36929 ft | 450 kts | 186° |
| 2026-04-24 19:29 | 33.99184 | -111.07823 | 36897 ft | 451 kts | 186° |
| 2026-04-24 19:30 | 33.92928 | -111.07273 | 36890 ft | 451 kts | 186° |
| 2026-04-24 19:30 | 33.86722 | -111.06727 | 36870 ft | 449 kts | 186° |
| 2026-04-24 19:31 | 33.80474 | -111.06180 | 36850 ft | 451 kts | 186° |
| 2026-04-24 19:31 | 33.74218 | -111.05632 | 36874 ft | 451 kts | 186° |
| 2026-04-24 19:32 | 33.67962 | -111.05084 | 36870 ft | 451 kts | 186° |
| 2026-04-24 19:32 | 33.61697 | -111.04538 | 36862 ft | 451 kts | 186° |
| 2026-04-24 19:33 | 33.55429 | -111.03991 | 36874 ft | 451 kts | 186° |
| 2026-04-24 19:33 | 33.49171 | -111.03446 | 36869 ft | 451 kts | 186° |
| 2026-04-24 19:34 | 33.42909 | -111.02901 | 36874 ft | 451 kts | 186° |
| 2026-04-24 19:34 | 33.36648 | -111.02357 | 36865 ft | 450 kts | 187° |
| 2026-04-24 19:35 | 33.30398 | -111.01816 | 36870 ft | 451 kts | 186° |
| 2026-04-24 19:35 | 33.24144 | -111.01274 | 36869 ft | 451 kts | 186° |
| 2026-04-24 19:36 | 33.17893 | -111.00733 | 36865 ft | 449 kts | 186° |
| 2026-04-24 19:36 | 33.11705 | -111.00200 | 36864 ft | 450 kts | 186° |
| 2026-04-24 19:37 | 33.05453 | -110.99661 | 36870 ft | 450 kts | 186° |
| 2026-04-24 19:37 | 32.99214 | -110.99124 | 36876 ft | 449 kts | 186° |
| 2026-04-24 19:38 | 32.92974 | -110.98587 | 36881 ft | 450 kts | 186° |
| 2026-04-24 19:38 | 32.86733 | -110.98052 | 36886 ft | 450 kts | 186° |
| 2026-04-24 19:39 | 32.80489 | -110.97516 | 36898 ft | 449 kts | 186° |
| 2026-04-24 19:39 | 32.74252 | -110.96983 | 36900 ft | 449 kts | 186° |
| 2026-04-24 19:40 | 32.68027 | -110.96450 | 36910 ft | 449 kts | 186° |
| 2026-04-24 19:40 | 32.61789 | -110.95918 | 36919 ft | 450 kts | 187° |
| 2026-04-24 19:41 | 32.55546 | -110.95386 | 36929 ft | 450 kts | 187° |
| 2026-04-24 19:41 | 32.49305 | -110.94854 | 36937 ft | 450 kts | 187° |
| 2026-04-24 19:42 | 32.43069 | -110.94324 | 36936 ft | 450 kts | 187° |
| 2026-04-24 19:42 | 32.36828 | -110.93794 | 36944 ft | 450 kts | 187° |
| 2026-04-24 19:43 | 32.30585 | -110.93265 | 36954 ft | 449 kts | 187° |
| 2026-04-24 19:43 | 32.24346 | -110.92737 | 36965 ft | 449 kts | 187° |
| 2026-04-24 19:44 | 32.18106 | -110.92209 | 36970 ft | 449 kts | 187° |
| 2026-04-24 19:44 | 32.11868 | -110.91683 | 36975 ft | 449 kts | 187° |
| 2026-04-24 19:45 | 32.05711 | -110.91680 | 36994 ft | 440 kts | 193° |
| 2026-04-24 19:45 | 31.99600 | -110.91947 | 36965 ft | 439 kts | 193° |
| 2026-04-24 19:46 | 31.93490 | -110.92228 | 36940 ft | 439 kts | 193° |
| 2026-04-24 19:46 | 31.87374 | -110.92511 | 36899 ft | 439 kts | 193° |
| 2026-04-24 19:47 | 31.81267 | -110.92792 | 36885 ft | 439 kts | 193° |
| 2026-04-24 19:47 | 31.75158 | -110.93073 | 36861 ft | 439 kts | 193° |
| 2026-04-24 19:48 | 31.69054 | -110.93354 | 36869 ft | 439 kts | 193° |
| 2026-04-24 19:48 | 31.59936 | -110.93773 | 36964 ft | 439 kts | 193° |
| 2026-04-24 19:49 | 31.47696 | -110.94334 | 37028 ft | 439 kts | 193° |
| 2026-04-24 19:50 | 31.35504 | -110.94804 | 37000 ft | 448 kts | 186° |
| 2026-04-24 19:51 | 31.29361 | -110.92432 | 37008 ft | 485 kts | 163° |
| 2026-04-24 19:51 | 31.26358 | -110.90628 | 36965 ft | 485 kts | 163° |
| 2026-04-24 19:52 | 31.17375 | -110.85129 | 36964 ft | 487 kts | 162° |
| 2026-04-24 19:52 | 31.11381 | -110.81439 | 36892 ft | 486 kts | 163° |
| 2026-04-24 19:53 | 31.05387 | -110.77752 | 36886 ft | 487 kts | 162° |
| 2026-04-24 19:54 | 30.96403 | -110.72237 | 36894 ft | 487 kts | 163° |
| 2026-04-24 19:54 | 30.90408 | -110.68564 | 36865 ft | 487 kts | 163° |
| 2026-04-24 19:55 | 30.86396 | -110.66109 | 36874 ft | 487 kts | 163° |
| 2026-04-24 19:55 | 30.78410 | -110.61227 | 36884 ft | 486 kts | 163° |
| 2026-04-24 19:56 | 30.72416 | -110.57570 | 36898 ft | 487 kts | 163° |
| 2026-04-24 19:56 | 30.66421 | -110.53918 | 36842 ft | 486 kts | 163° |
| 2026-04-24 19:57 | 30.60422 | -110.50268 | 36889 ft | 487 kts | 163° |
| 2026-04-24 19:57 | 30.54426 | -110.46625 | 36892 ft | 486 kts | 163° |
| 2026-04-24 19:58 | 30.48425 | -110.42984 | 36878 ft | 487 kts | 163° |
| 2026-04-24 19:58 | 30.42417 | -110.39343 | 36858 ft | 487 kts | 163° |
| 2026-04-24 19:59 | 30.36456 | -110.35737 | 36843 ft | 487 kts | 163° |
| 2026-04-24 19:59 | 30.30453 | -110.32111 | 36933 ft | 488 kts | 163° |
| 2026-04-24 20:00 | 30.25419 | -110.29072 | 36878 ft | 486 kts | 163° |
| 2026-04-24 20:00 | 30.18449 | -110.24873 | 36845 ft | 486 kts | 163° |
| 2026-04-24 20:01 | 30.12453 | -110.21265 | 36902 ft | 486 kts | 163° |
| 2026-04-24 20:01 | 30.07474 | -110.18273 | 36881 ft | 485 kts | 163° |
| 2026-04-24 20:02 | 30.01480 | -110.14676 | 36889 ft | 486 kts | 163° |
| 2026-04-24 20:02 | 29.95486 | -110.11084 | 36887 ft | 486 kts | 163° |
| 2026-04-24 20:03 | 29.89486 | -110.07492 | 36890 ft | 486 kts | 163° |
| 2026-04-24 20:03 | 29.83489 | -110.03907 | 36858 ft | 485 kts | 163° |
| 2026-04-24 20:04 | 29.77491 | -110.00326 | 36884 ft | 486 kts | 163° |
| 2026-04-24 20:04 | 29.71500 | -109.96756 | 36886 ft | 485 kts | 163° |
| 2026-04-24 20:05 | 29.65509 | -109.93194 | 36884 ft | 485 kts | 163° |
| 2026-04-24 20:05 | 29.59515 | -109.89634 | 36864 ft | 484 kts | 163° |
| 2026-04-24 20:06 | 29.53531 | -109.86084 | 36882 ft | 484 kts | 163° |
| 2026-04-24 20:06 | 29.47541 | -109.82534 | 36869 ft | 483 kts | 163° |
| 2026-04-24 20:07 | 29.42576 | -109.79597 | 36858 ft | 484 kts | 164° |
| 2026-04-24 20:07 | 29.35573 | -109.75458 | 36876 ft | 485 kts | 164° |
| 2026-04-24 20:08 | 29.29569 | -109.71915 | 36861 ft | 485 kts | 164° |
| 2026-04-24 20:08 | 29.23581 | -109.68387 | 36897 ft | 483 kts | 164° |
| 2026-04-24 20:09 | 29.17584 | -109.64857 | 36832 ft | 484 kts | 164° |
| 2026-04-24 20:09 | 29.11590 | -109.61335 | 36898 ft | 486 kts | 164° |
| 2026-04-24 20:10 | 29.05590 | -109.57812 | 36824 ft | 484 kts | 163° |
| 2026-04-24 20:10 | 28.99606 | -109.54305 | 36929 ft | 483 kts | 164° |
| 2026-04-24 20:11 | 28.93605 | -109.50793 | 36869 ft | 485 kts | 164° |
| 2026-04-24 20:11 | 28.87600 | -109.47281 | 36883 ft | 485 kts | 164° |
| 2026-04-24 20:12 | 28.81586 | -109.43769 | 36870 ft | 485 kts | 164° |
| 2026-04-24 20:12 | 28.75573 | -109.40264 | 36887 ft | 486 kts | 164° |
| 2026-04-24 20:13 | 28.69581 | -109.36775 | 36924 ft | 484 kts | 164° |
| 2026-04-24 20:13 | 28.63571 | -109.33278 | 36905 ft | 484 kts | 164° |
| 2026-04-24 20:14 | 28.57573 | -109.29794 | 36929 ft | 485 kts | 164° |
| 2026-04-24 20:14 | 28.51581 | -109.26318 | 36938 ft | 483 kts | 164° |
| 2026-04-24 20:15 | 28.45622 | -109.22865 | 36909 ft | 483 kts | 164° |
| 2026-04-24 20:15 | 28.39581 | -109.19369 | 36939 ft | 485 kts | 164° |
| 2026-04-24 20:16 | 28.33627 | -109.15928 | 36944 ft | 483 kts | 164° |
| 2026-04-24 20:16 | 28.27627 | -109.12466 | 36950 ft | 484 kts | 164° |
| 2026-04-24 20:17 | 28.21632 | -109.09011 | 36963 ft | 484 kts | 164° |
| 2026-04-24 20:17 | 28.12628 | -109.03829 | 36913 ft | 484 kts | 164° |
| 2026-04-24 20:18 | 28.06628 | -109.00380 | 36956 ft | 483 kts | 164° |
| 2026-04-24 20:18 | 28.00641 | -108.96945 | 36991 ft | 482 kts | 164° |
| 2026-04-24 20:19 | 27.94650 | -108.93510 | 36940 ft | 482 kts | 165° |
| 2026-04-24 20:19 | 27.88652 | -108.90076 | 36878 ft | 483 kts | 165° |
| 2026-04-24 20:20 | 27.85655 | -108.88361 | 37027 ft | 483 kts | 164° |
| 2026-04-24 20:20 | 27.82670 | -108.86655 | 36954 ft | 479 kts | 165° |
| 2026-04-24 20:20 | 27.76727 | -108.83263 | 36955 ft | 480 kts | 165° |
| 2026-04-24 20:21 | 27.70749 | -108.79853 | 36930 ft | 481 kts | 165° |
| 2026-04-24 20:21 | 27.64764 | -108.76444 | 36918 ft | 482 kts | 164° |
| 2026-04-24 20:22 | 27.58777 | -108.73037 | 36929 ft | 482 kts | 164° |
| 2026-04-24 20:22 | 27.52792 | -108.69636 | 36937 ft | 481 kts | 165° |
| 2026-04-24 20:23 | 27.46823 | -108.66249 | 36950 ft | 481 kts | 164° |
| 2026-04-24 20:23 | 27.40829 | -108.62851 | 36938 ft | 482 kts | 164° |
| 2026-04-24 20:24 | 27.34900 | -108.59494 | 36995 ft | 479 kts | 164° |
| 2026-04-24 20:24 | 27.28915 | -108.56110 | 36940 ft | 482 kts | 164° |
| 2026-04-24 20:25 | 27.22945 | -108.52738 | 36931 ft | 481 kts | 164° |
| 2026-04-24 20:25 | 27.16954 | -108.49331 | 36935 ft | 484 kts | 163° |
| 2026-04-24 20:26 | 27.10943 | -108.45866 | 36967 ft | 485 kts | 163° |
| 2026-04-24 20:26 | 27.04961 | -108.42427 | 36944 ft | 483 kts | 163° |
| 2026-04-24 20:27 | 26.98962 | -108.38985 | 36910 ft | 485 kts | 164° |
| 2026-04-24 20:27 | 26.92953 | -108.35539 | 36964 ft | 486 kts | 164° |
| 2026-04-24 20:28 | 26.86932 | -108.32091 | 36926 ft | 483 kts | 163° |
| 2026-04-24 20:28 | 26.80936 | -108.28661 | 36922 ft | 483 kts | 163° |
| 2026-04-24 20:29 | 26.74947 | -108.25240 | 36921 ft | 483 kts | 163° |
| 2026-04-24 20:29 | 26.68956 | -108.21821 | 36921 ft | 483 kts | 163° |
| 2026-04-24 20:30 | 26.62969 | -108.18408 | 36903 ft | 483 kts | 163° |
| 2026-04-24 20:30 | 26.56980 | -108.15000 | 36929 ft | 483 kts | 163° |
| 2026-04-24 20:31 | 26.50993 | -108.11596 | 36933 ft | 483 kts | 163° |
| 2026-04-24 20:31 | 26.44995 | -108.08189 | 36933 ft | 484 kts | 163° |
| 2026-04-24 20:32 | 26.39034 | -108.04808 | 36939 ft | 484 kts | 163° |
| 2026-04-24 20:32 | 26.33040 | -108.01411 | 36939 ft | 483 kts | 163° |
| 2026-04-24 20:33 | 26.27052 | -107.98024 | 36937 ft | 483 kts | 163° |
| 2026-04-24 20:33 | 26.21062 | -107.94638 | 36892 ft | 482 kts | 163° |
| 2026-04-24 20:34 | 26.15084 | -107.91261 | 36933 ft | 482 kts | 163° |
| 2026-04-24 20:34 | 26.09103 | -107.87889 | 36917 ft | 481 kts | 163° |
| 2026-04-24 20:35 | 26.03112 | -107.84515 | 36895 ft | 483 kts | 162° |
| 2026-04-24 20:35 | 25.97144 | -107.81157 | 36923 ft | 481 kts | 162° |
| 2026-04-24 20:36 | 25.91182 | -107.77806 | 36916 ft | 480 kts | 162° |
| 2026-04-24 20:36 | 25.85220 | -107.74459 | 36921 ft | 480 kts | 162° |
| 2026-04-24 20:37 | 25.79248 | -107.71110 | 36922 ft | 481 kts | 162° |
| 2026-04-24 20:37 | 25.73273 | -107.67763 | 36906 ft | 481 kts | 162° |
| 2026-04-24 20:38 | 25.67299 | -107.64421 | 36911 ft | 481 kts | 162° |
| 2026-04-24 20:38 | 25.61327 | -107.61083 | 36903 ft | 481 kts | 162° |
| 2026-04-24 20:39 | 25.55365 | -107.57756 | 36933 ft | 478 kts | 162° |
| 2026-04-24 20:39 | 25.49408 | -107.54434 | 36898 ft | 480 kts | 162° |
| 2026-04-24 20:40 | 25.43433 | -107.51106 | 36901 ft | 481 kts | 161° |
| 2026-04-24 20:40 | 25.37499 | -107.47806 | 36912 ft | 480 kts | 162° |
| 2026-04-24 20:41 | 25.31521 | -107.44483 | 36894 ft | 481 kts | 161° |
| 2026-04-24 20:41 | 25.25546 | -107.41166 | 36905 ft | 481 kts | 161° |
| 2026-04-24 20:42 | 25.19565 | -107.37850 | 36871 ft | 481 kts | 161° |
| 2026-04-24 20:42 | 25.13567 | -107.34528 | 36892 ft | 483 kts | 161° |
| 2026-04-24 20:43 | 25.07566 | -107.31208 | 36896 ft | 483 kts | 161° |
| 2026-04-24 20:43 | 25.01558 | -107.27887 | 36898 ft | 482 kts | 161° |
| 2026-04-24 20:44 | 24.95560 | -107.24576 | 36905 ft | 482 kts | 161° |
| 2026-04-24 20:44 | 24.89551 | -107.21262 | 36910 ft | 483 kts | 161° |
| 2026-04-24 20:45 | 24.83544 | -107.17954 | 36910 ft | 482 kts | 161° |
| 2026-04-24 20:45 | 24.77545 | -107.14653 | 36890 ft | 482 kts | 161° |
| 2026-04-24 20:46 | 24.71542 | -107.11354 | 36884 ft | 482 kts | 161° |
| 2026-04-24 20:46 | 24.65538 | -107.08057 | 36893 ft | 483 kts | 161° |
| 2026-04-24 20:47 | 24.59534 | -107.04764 | 36888 ft | 481 kts | 160° |
| 2026-04-24 20:47 | 24.53539 | -107.01479 | 36890 ft | 482 kts | 160° |
| 2026-04-24 20:48 | 24.48556 | -106.98752 | 36896 ft | 482 kts | 160° |
| 2026-04-24 20:48 | 24.42566 | -106.95477 | 36897 ft | 481 kts | 160° |
| 2026-04-24 20:49 | 24.35604 | -106.91674 | 36864 ft | 479 kts | 160° |
| 2026-04-24 20:49 | 24.29626 | -106.88414 | 36901 ft | 481 kts | 160° |
| 2026-04-24 20:50 | 24.24611 | -106.85681 | 36899 ft | 480 kts | 160° |
| 2026-04-24 20:50 | 24.18627 | -106.82422 | 36909 ft | 480 kts | 160° |
| 2026-04-24 20:51 | 24.12636 | -106.79165 | 36872 ft | 480 kts | 160° |
| 2026-04-24 20:51 | 24.06645 | -106.75909 | 36887 ft | 481 kts | 160° |
| 2026-04-24 20:52 | 24.00669 | -106.72665 | 36893 ft | 479 kts | 160° |
| 2026-04-24 20:52 | 23.94691 | -106.69425 | 36901 ft | 480 kts | 160° |
| 2026-04-24 20:53 | 23.88715 | -106.66188 | 36895 ft | 479 kts | 160° |
| 2026-04-24 20:53 | 23.82742 | -106.62956 | 36901 ft | 479 kts | 160° |
| 2026-04-24 20:54 | 23.76765 | -106.59725 | 36896 ft | 479 kts | 160° |
| 2026-04-24 20:54 | 23.70824 | -106.56517 | 36898 ft | 479 kts | 160° |
| 2026-04-24 20:55 | 23.64848 | -106.53294 | 36897 ft | 479 kts | 160° |
| 2026-04-24 20:55 | 23.58869 | -106.50072 | 36890 ft | 479 kts | 160° |
| 2026-04-24 20:56 | 23.52894 | -106.46856 | 36902 ft | 479 kts | 160° |
| 2026-04-24 20:56 | 23.46912 | -106.43639 | 36888 ft | 479 kts | 159° |
| 2026-04-24 20:57 | 23.40941 | -106.40431 | 36892 ft | 478 kts | 159° |
| 2026-04-24 20:57 | 23.34977 | -106.37231 | 36898 ft | 478 kts | 159° |
| 2026-04-24 20:58 | 23.29011 | -106.34033 | 36904 ft | 478 kts | 160° |
| 2026-04-24 20:58 | 23.23038 | -106.30834 | 36894 ft | 479 kts | 160° |
| 2026-04-24 20:59 | 23.17068 | -106.27643 | 36928 ft | 477 kts | 160° |
| 2026-04-24 20:59 | 23.10937 | -106.25045 | 36930 ft | 473 kts | 165° |
| 2026-04-24 21:00 | 23.04813 | -106.22440 | 36940 ft | 473 kts | 164° |
| 2026-04-24 21:00 | 22.98689 | -106.19815 | 36919 ft | 473 kts | 164° |
| 2026-04-24 21:01 | 22.92568 | -106.17192 | 36908 ft | 473 kts | 164° |
| 2026-04-24 21:01 | 22.86445 | -106.14571 | 36902 ft | 473 kts | 164° |
| 2026-04-24 21:02 | 22.80324 | -106.11953 | 36898 ft | 473 kts | 164° |
| 2026-04-24 21:02 | 22.74203 | -106.09338 | 36897 ft | 473 kts | 164° |
| 2026-04-24 21:03 | 22.68088 | -106.06739 | 36893 ft | 472 kts | 164° |
| 2026-04-24 21:03 | 22.61963 | -106.04152 | 36885 ft | 472 kts | 164° |
| 2026-04-24 21:04 | 22.55845 | -106.01571 | 36892 ft | 472 kts | 164° |
| 2026-04-24 21:04 | 22.49724 | -105.98990 | 36891 ft | 472 kts | 164° |
| 2026-04-24 21:05 | 22.43603 | -105.96411 | 36890 ft | 472 kts | 164° |
| 2026-04-24 21:05 | 22.37519 | -105.93851 | 36892 ft | 472 kts | 164° |
| 2026-04-24 21:06 | 22.34473 | -105.92570 | 36457 ft | 468 kts | 164° |
| 2026-04-24 21:06 | 22.31369 | -105.91265 | 35267 ft | 479 kts | 164° |
| 2026-04-24 21:06 | 22.28291 | -105.89971 | 34629 ft | 478 kts | 163° |
| 2026-04-24 21:06 | 22.25158 | -105.88656 | 33927 ft | 477 kts | 163° |
| 2026-04-24 21:07 | 22.22089 | -105.87368 | 32851 ft | 483 kts | 163° |
| 2026-04-24 21:07 | 22.18938 | -105.86045 | 31871 ft | 487 kts | 162° |
| 2026-04-24 21:07 | 22.15740 | -105.84704 | 31095 ft | 486 kts | 162° |
| 2026-04-24 21:07 | 22.12639 | -105.83404 | 30453 ft | 483 kts | 162° |
| 2026-04-24 21:08 | 22.09519 | -105.82098 | 29842 ft | 479 kts | 162° |
| 2026-04-24 21:08 | 22.06425 | -105.80802 | 29120 ft | 476 kts | 162° |
| 2026-04-24 21:08 | 22.03348 | -105.79515 | 28481 ft | 472 kts | 162° |
| 2026-04-24 21:08 | 22.00305 | -105.78242 | 27876 ft | 467 kts | 161° |
| 2026-04-24 21:09 | 21.97289 | -105.76980 | 27275 ft | 463 kts | 161° |
| 2026-04-24 21:09 | 21.94291 | -105.75727 | 26680 ft | 460 kts | 161° |
| 2026-04-24 21:09 | 21.91320 | -105.74486 | 26073 ft | 457 kts | 161° |
| 2026-04-24 21:09 | 21.88364 | -105.73252 | 25470 ft | 454 kts | 161° |
| 2026-04-24 21:10 | 21.85431 | -105.72027 | 24885 ft | 452 kts | 161° |
| 2026-04-24 21:10 | 21.82506 | -105.70807 | 24290 ft | 449 kts | 161° |
| 2026-04-24 21:10 | 21.79600 | -105.69595 | 23712 ft | 447 kts | 161° |
| 2026-04-24 21:10 | 21.76615 | -105.68717 | 22967 ft | 444 kts | 172° |
| 2026-04-24 21:11 | 21.73588 | -105.68136 | 22387 ft | 440 kts | 171° |
| 2026-04-24 21:11 | 21.70591 | -105.67535 | 21849 ft | 435 kts | 171° |
| 2026-04-24 21:11 | 21.67628 | -105.66944 | 21287 ft | 431 kts | 171° |
| 2026-04-24 21:11 | 21.64689 | -105.66360 | 20729 ft | 428 kts | 171° |
| 2026-04-24 21:12 | 21.61766 | -105.65780 | 20184 ft | 426 kts | 171° |
| 2026-04-24 21:12 | 21.59800 | -105.65389 | 19815 ft | 424 kts | 171° |
| 2026-04-24 21:12 | 21.55976 | -105.64630 | 19102 ft | 421 kts | 171° |
| 2026-04-24 21:12 | 21.53101 | -105.64060 | 18571 ft | 419 kts | 170° |
| 2026-04-24 21:13 | 21.50247 | -105.63493 | 18023 ft | 417 kts | 170° |
| 2026-04-24 21:13 | 21.47397 | -105.62928 | 17458 ft | 414 kts | 170° |
| 2026-04-24 21:13 | 21.44575 | -105.62369 | 16942 ft | 411 kts | 170° |
| 2026-04-24 21:13 | 21.41771 | -105.61813 | 16473 ft | 407 kts | 170° |
| 2026-04-24 21:14 | 21.39006 | -105.61266 | 16073 ft | 402 kts | 170° |
| 2026-04-24 21:14 | 21.36274 | -105.60725 | 15680 ft | 397 kts | 170° |
| 2026-04-24 21:14 | 21.33573 | -105.60191 | 15265 ft | 393 kts | 169° |
| 2026-04-24 21:14 | 21.30901 | -105.59662 | 14865 ft | 389 kts | 169° |
| 2026-04-24 21:15 | 21.28243 | -105.59137 | 14462 ft | 389 kts | 169° |
| 2026-04-24 21:15 | 21.25581 | -105.58611 | 14086 ft | 388 kts | 169° |
| 2026-04-24 21:15 | 21.22937 | -105.58088 | 13666 ft | 385 kts | 169° |
| 2026-04-24 21:15 | 21.20317 | -105.57572 | 13219 ft | 382 kts | 169° |
| 2026-04-24 21:16 | 21.17716 | -105.57059 | 12810 ft | 377 kts | 169° |
| 2026-04-24 21:16 | 21.15148 | -105.56552 | 12433 ft | 373 kts | 170° |
| 2026-04-24 21:16 | 21.12623 | -105.56054 | 12100 ft | 367 kts | 170° |
| 2026-04-24 21:16 | 21.10124 | -105.55561 | 11736 ft | 363 kts | 170° |
| 2026-04-24 21:17 | 21.07656 | -105.55074 | 11369 ft | 359 kts | 170° |
| 2026-04-24 21:17 | 21.05212 | -105.54592 | 10985 ft | 355 kts | 170° |
| 2026-04-24 21:17 | 21.02825 | -105.54124 | 10872 ft | 337 kts | 170° |
| 2026-04-24 21:17 | 21.01341 | -105.53833 | 10876 ft | 321 kts | 170° |
| 2026-04-24 21:18 | 20.98529 | -105.53285 | 10884 ft | 298 kts | 170° |
| 2026-04-24 21:18 | 20.96522 | -105.52888 | 10865 ft | 295 kts | 170° |
| 2026-04-24 21:18 | 20.94581 | -105.52212 | 10576 ft | 291 kts | 147° |
| 2026-04-24 21:18 | 20.93242 | -105.50666 | 10255 ft | 289 kts | 115° |
| 2026-04-24 21:19 | 20.92709 | -105.48628 | 10025 ft | 283 kts | 94° |
| 2026-04-24 21:19 | 20.92667 | -105.46509 | 9769 ft | 284 kts | 90° |
| 2026-04-24 21:19 | 20.92641 | -105.44369 | 9300 ft | 291 kts | 90° |
| 2026-04-24 21:19 | 20.92606 | -105.42222 | 8898 ft | 294 kts | 90° |
| 2026-04-24 21:20 | 20.92526 | -105.37860 | 8267 ft | 292 kts | 90° |
| 2026-04-24 21:20 | 20.92484 | -105.35694 | 7963 ft | 291 kts | 90° |
| 2026-04-24 21:20 | 20.92442 | -105.33537 | 7664 ft | 290 kts | 90° |
| 2026-04-24 21:21 | 20.92399 | -105.31383 | 7359 ft | 289 kts | 90° |
| 2026-04-24 21:21 | 20.92357 | -105.29238 | 7053 ft | 289 kts | 90° |
| 2026-04-24 21:21 | 20.92316 | -105.27090 | 6747 ft | 289 kts | 90° |
| 2026-04-24 21:21 | 20.92273 | -105.24915 | 6435 ft | 289 kts | 90° |
| 2026-04-24 21:22 | 20.92228 | -105.22793 | 6118 ft | 289 kts | 91° |
| 2026-04-24 21:22 | 20.92183 | -105.20652 | 5768 ft | 287 kts | 90° |
| 2026-04-24 21:22 | 20.92141 | -105.18530 | 5541 ft | 282 kts | 90° |
| 2026-04-24 21:22 | 20.92113 | -105.17133 | 5457 ft | 276 kts | 90° |
| 2026-04-24 21:23 | 20.92057 | -105.14469 | 5268 ft | 265 kts | 92° |
| 2026-04-24 21:23 | 20.91624 | -105.12583 | 4978 ft | 262 kts | 120° |
| 2026-04-24 21:23 | 20.90437 | -105.11140 | 4668 ft | 258 kts | 142° |
| 2026-04-24 21:23 | 20.89058 | -105.09917 | 4377 ft | 257 kts | 142° |
| 2026-04-24 21:24 | 20.87683 | -105.08691 | 4086 ft | 257 kts | 142° |
| 2026-04-24 21:24 | 20.86159 | -105.07746 | 3834 ft | 252 kts | 168° |
| 2026-04-24 21:24 | 20.84449 | -105.07716 | 3606 ft | 245 kts | 197° |
| 2026-04-24 21:24 | 20.82971 | -105.08532 | 3425 ft | 237 kts | 221° |
| 2026-04-24 21:25 | 20.81816 | -105.09740 | 3275 ft | 228 kts | 226° |
| 2026-04-24 21:25 | 20.80722 | -105.10931 | 3127 ft | 221 kts | 226° |
| 2026-04-24 21:25 | 20.79673 | -105.12097 | 2942 ft | 216 kts | 227° |
| 2026-04-24 21:25 | 20.78644 | -105.13252 | 2649 ft | 211 kts | 228° |
| 2026-04-24 21:26 | 20.77660 | -105.14365 | 2457 ft | 200 kts | 229° |
| 2026-04-24 21:26 | 20.76731 | -105.15419 | 2270 ft | 190 kts | 230° |
| 2026-04-24 21:26 | 20.75855 | -105.16421 | 2158 ft | 178 kts | 230° |
| 2026-04-24 21:26 | 20.75053 | -105.17339 | 2004 ft | 162 kts | 230° |
| 2026-04-24 21:27 | 20.74315 | -105.18183 | 1761 ft | 149 kts | 229° |
| 2026-04-24 21:27 | 20.73615 | -105.18987 | 1671 ft | 149 kts | 229° |
| 2026-04-24 21:27 | 20.72906 | -105.19799 | 1554 ft | 149 kts | 229° |
| 2026-04-24 21:27 | 20.72438 | -105.20330 | 1346 ft | 147 kts | 229° |
| 2026-04-24 21:28 | 20.71523 | -105.21378 | 860 ft | 142 kts | 232° |
| 2026-04-24 21:28 | 20.70866 | -105.22139 | 595 ft | 137 kts | 230° |
| 2026-04-24 21:28 | 20.70222 | -105.22882 | 460 ft | 136 kts | 231° |
| 2026-04-24 21:28 | 20.69587 | -105.23611 | 272 ft | 134 kts | 229° |
| 2026-04-24 21:29 | 20.68958 | -105.24327 | 68 ft | 133 kts | 228° |
| 2026-04-24 21:29 | 20.68381 | -105.24991 | 30 ft | 99 kts | 227° |
| 2026-04-24 21:29 | 20.68066 | -105.25353 | 33 ft | 42 kts | 227° |
| 2026-04-24 21:29 | 20.67894 | -105.25544 | 33 ft | 27 kts | 219° |
| 2026-04-24 21:30 | 20.67724 | -105.25641 | 31 ft | 28 kts | 198° |
| 2026-04-24 21:30 | 20.67616 | -105.25652 | 31 ft | 9 kts | 130° |
| 2026-04-24 21:30 | 20.67634 | -105.25588 | 31 ft | 11 kts | 50° |
| 2026-04-24 21:30 | 20.67691 | -105.25525 | 31 ft | 13 kts | 48° |
| 2026-04-24 21:31 | 20.67757 | -105.25448 | 32 ft | 15 kts | 46° |
| 2026-04-24 21:31 | 20.67834 | -105.25359 | 32 ft | 18 kts | 47° |
| 2026-04-24 21:31 | 20.67922 | -105.25256 | 32 ft | 20 kts | 47° |
| 2026-04-24 21:31 | 20.68022 | -105.25140 | 32 ft | 22 kts | 46° |
| 2026-04-24 21:32 | 20.68079 | -105.25075 | 31 ft | 10 kts | 56° |
| 2026-04-24 21:32 | 20.68060 | -105.25008 | 31 ft | 11 kts | 137° |
| 2026-04-24 21:32 | 20.67994 | -105.24943 | 31 ft | 14 kts | 137° |
| 2026-04-24 21:32 | 20.67983 | -105.24896 | 31 ft | 4 kts | 61° |
| 2026-04-24 21:33 | 20.67996 | -105.24848 | 31 ft | 9 kts | 96° |
| 2026-04-24 21:33 | 20.67979 | -105.24816 | 31 ft | 7 kts | 149° |
| 2026-04-24 21:33 | 20.67951 | -105.24831 | 31 ft | 6 kts | 227° |
| 2026-04-24 21:33 | 20.67934 | -105.24851 | 31 ft | 2 kts | 226° |
| 2026-04-24 21:34 | 20.67929 | -105.24856 | 31 ft | 0 kts | 226° |
| 2026-04-24 21:34 | 20.67928 | -105.24858 | 31 ft | 0 kts | 226° |
| 2026-04-24 21:34 | 20.67929 | -105.24856 | 31 ft | 0 kts | 226° |